Paragonah, Utah
Current Conditions -  °F | °C
As of 10:53 PM on Tuesday 27 Jan 2015 (Local Time) from KCDC Reporting Station
Clear Clear  
Wind Chill: 36°   Ceiling: Unl
Heat Index: 36°   Visibility: 10mi
Dew Point: 33°   Wind: 3mph
Humidity: 89%   Direction: 230°SW
Pressure: 30.25"   Gusts: NA
Location:  37.89°N, 112.78°W
Report Text: KCDC 280553Z AUTO 23003KT 10SM CLR 02/01 A3025 RMK AO2 SLP231 T00220006 10100 20000 53004
Loading
Personal Weather Stations






























Interactive Weather Map New forecast layout! Learn more

10-Day Weather Forecast

Advertisements
Track Severe Weather on mobile